sensor_id;sensor_type;location;lat;lon;timestamp;P1;durP1;ratioP1;P2;durP2;ratioP2
4742;SDS011;24293;48.154;7.748;2023-07-20T00:00:38;7.30;;;3.23;;
4742;SDS011;24293;48.154;7.748;2023-07-20T00:03:11;10.07;;;2.70;;
4742;SDS011;24293;48.154;7.748;2023-07-20T00:05:42;5.57;;;2.70;;
4742;SDS011;24293;48.154;7.748;2023-07-20T00:08:09;7.93;;;2.70;;
4742;SDS011;24293;48.154;7.748;2023-07-20T00:10:36;5.37;;;2.63;;
4742;SDS011;24293;48.154;7.748;2023-07-20T00:13:02;7.17;;;2.90;;
4742;SDS011;24293;48.154;7.748;2023-07-20T00:15:30;6.90;;;3.00;;
4742;SDS011;24293;48.154;7.748;2023-07-20T00:17:56;6.80;;;3.23;;
4742;SDS011;24293;48.154;7.748;2023-07-20T00:20:23;8.20;;;3.30;;
4742;SDS011;24293;48.154;7.748;2023-07-20T00:22:50;7.37;;;3.20;;
4742;SDS011;24293;48.154;7.748;2023-07-20T00:25:17;12.27;;;3.40;;
4742;SDS011;24293;48.154;7.748;2023-07-20T00:27:43;11.33;;;3.33;;
4742;SDS011;24293;48.154;7.748;2023-07-20T00:30:10;10.17;;;3.33;;
4742;SDS011;24293;48.154;7.748;2023-07-20T00:32:38;7.63;;;3.57;;
4742;SDS011;24293;48.154;7.748;2023-07-20T00:35:05;6.50;;;2.97;;
4742;SDS011;24293;48.154;7.748;2023-07-20T00:37:31;14.37;;;3.67;;
4742;SDS011;24293;48.154;7.748;2023-07-20T00:40:00;10.77;;;3.30;;
4742;SDS011;24293;48.154;7.748;2023-07-20T00:42:29;12.00;;;4.30;;
4742;SDS011;24293;48.154;7.748;2023-07-20T00:44:56;5.53;;;2.87;;
4742;SDS011;24293;48.154;7.748;2023-07-20T00:47:22;6.03;;;3.43;;
4742;SDS011;24293;48.154;7.748;2023-07-20T00:49:50;8.40;;;3.30;;
4742;SDS011;24293;48.154;7.748;2023-07-20T00:52:17;7.03;;;3.40;;
4742;SDS011;24293;48.154;7.748;2023-07-20T00:54:44;11.57;;;4.10;;
4742;SDS011;24293;48.154;7.748;2023-07-20T00:57:11;10.40;;;3.63;;
4742;SDS011;24293;48.154;7.748;2023-07-20T00:59:39;8.30;;;3.80;;
4742;SDS011;24293;48.154;7.748;2023-07-20T01:02:05;5.90;;;3.40;;
4742;SDS011;24293;48.154;7.748;2023-07-20T01:04:32;8.20;;;3.23;;
4742;SDS011;24293;48.154;7.748;2023-07-20T01:07:02;8.20;;;3.03;;
4742;SDS011;24293;48.154;7.748;2023-07-20T01:09:31;7.20;;;3.23;;
4742;SDS011;24293;48.154;7.748;2023-07-20T01:12:02;9.30;;;3.70;;
4742;SDS011;24293;48.154;7.748;2023-07-20T01:14:31;6.53;;;3.30;;
4742;SDS011;24293;48.154;7.748;2023-07-20T01:16:58;7.60;;;3.40;;
4742;SDS011;24293;48.154;7.748;2023-07-20T01:19:24;8.97;;;2.90;;
4742;SDS011;24293;48.154;7.748;2023-07-20T01:21:52;7.53;;;3.40;;
4742;SDS011;24293;48.154;7.748;2023-07-20T01:24:30;8.90;;;3.43;;
4742;SDS011;24293;48.154;7.748;2023-07-20T01:29:54;8.70;;;3.77;;
4742;SDS011;24293;48.154;7.748;2023-07-20T01:32:28;6.93;;;4.03;;
4742;SDS011;24293;48.154;7.748;2023-07-20T01:34:55;9.13;;;4.17;;
4742;SDS011;24293;48.154;7.748;2023-07-20T01:37:23;21.37;;;10.00;;
4742;SDS011;24293;48.154;7.748;2023-07-20T01:39:53;19.43;;;9.20;;
4742;SDS011;24293;48.154;7.748;2023-07-20T01:42:21;40.27;;;18.60;;
4742;SDS011;24293;48.154;7.748;2023-07-20T01:44:50;85.73;;;38.53;;
4742;SDS011;24293;48.154;7.748;2023-07-20T01:47:16;93.00;;;40.43;;
4742;SDS011;24293;48.154;7.748;2023-07-20T01:49:44;64.93;;;29.20;;
4742;SDS011;24293;48.154;7.748;2023-07-20T01:52:11;115.17;;;48.13;;
4742;SDS011;24293;48.154;7.748;2023-07-20T01:54:37;116.97;;;50.10;;
4742;SDS011;24293;48.154;7.748;2023-07-20T01:57:04;119.33;;;53.57;;
4742;SDS011;24293;48.154;7.748;2023-07-20T01:59:31;71.27;;;36.10;;
4742;SDS011;24293;48.154;7.748;2023-07-20T02:01:57;64.43;;;32.40;;
4742;SDS011;24293;48.154;7.748;2023-07-20T02:04:24;29.53;;;16.70;;
4742;SDS011;24293;48.154;7.748;2023-07-20T02:06:52;16.47;;;8.83;;
4742;SDS011;24293;48.154;7.748;2023-07-20T02:09:18;10.70;;;6.27;;
4742;SDS011;24293;48.154;7.748;2023-07-20T02:11:45;7.60;;;3.77;;
4742;SDS011;24293;48.154;7.748;2023-07-20T02:14:11;7.93;;;3.70;;
4742;SDS011;24293;48.154;7.748;2023-07-20T02:16:38;11.00;;;3.30;;
4742;SDS011;24293;48.154;7.748;2023-07-20T02:19:04;7.97;;;2.73;;
4742;SDS011;24293;48.154;7.748;2023-07-20T02:21:32;8.10;;;3.23;;
4742;SDS011;24293;48.154;7.748;2023-07-20T02:24:00;9.03;;;3.73;;
4742;SDS011;24293;48.154;7.748;2023-07-20T02:26:26;9.70;;;4.60;;
4742;SDS011;24293;48.154;7.748;2023-07-20T02:28:53;8.33;;;3.97;;
4742;SDS011;24293;48.154;7.748;2023-07-20T02:31:19;12.07;;;4.40;;
4742;SDS011;24293;48.154;7.748;2023-07-20T02:33:46;10.20;;;3.63;;
4742;SDS011;24293;48.154;7.748;2023-07-20T02:36:12;7.17;;;3.37;;
4742;SDS011;24293;48.154;7.748;2023-07-20T02:38:39;6.63;;;3.53;;
4742;SDS011;24293;48.154;7.748;2023-07-20T02:41:07;8.90;;;3.30;;
4742;SDS011;24293;48.154;7.748;2023-07-20T02:43:33;11.87;;;3.93;;
4742;SDS011;24293;48.154;7.748;2023-07-20T02:46:00;8.67;;;3.70;;
4742;SDS011;24293;48.154;7.748;2023-07-20T02:48:26;9.67;;;3.73;;
4742;SDS011;24293;48.154;7.748;2023-07-20T02:50:53;7.43;;;3.30;;
4742;SDS011;24293;48.154;7.748;2023-07-20T02:53:20;7.20;;;3.40;;
4742;SDS011;24293;48.154;7.748;2023-07-20T02:55:46;8.70;;;3.90;;
4742;SDS011;24293;48.154;7.748;2023-07-20T02:58:14;11.23;;;3.70;;
4742;SDS011;24293;48.154;7.748;2023-07-20T03:00:42;9.00;;;3.30;;
4742;SDS011;24293;48.154;7.748;2023-07-20T03:03:08;9.20;;;3.70;;
4742;SDS011;24293;48.154;7.748;2023-07-20T03:05:35;7.60;;;3.87;;
4742;SDS011;24293;48.154;7.748;2023-07-20T03:08:03;9.23;;;3.27;;
4742;SDS011;24293;48.154;7.748;2023-07-20T03:10:31;6.40;;;2.90;;
4742;SDS011;24293;48.154;7.748;2023-07-20T03:12:57;6.83;;;3.60;;
4742;SDS011;24293;48.154;7.748;2023-07-20T03:15:25;9.80;;;3.40;;
4742;SDS011;24293;48.154;7.748;2023-07-20T03:17:52;9.90;;;3.97;;
4742;SDS011;24293;48.154;7.748;2023-07-20T03:20:19;6.10;;;3.23;;
4742;SDS011;24293;48.154;7.748;2023-07-20T03:22:45;7.17;;;3.90;;
4742;SDS011;24293;48.154;7.748;2023-07-20T03:25:12;10.00;;;3.60;;
4742;SDS011;24293;48.154;7.748;2023-07-20T03:27:39;7.70;;;3.60;;
4742;SDS011;24293;48.154;7.748;2023-07-20T03:30:06;8.50;;;3.70;;
4742;SDS011;24293;48.154;7.748;2023-07-20T03:32:36;5.90;;;3.00;;
4742;SDS011;24293;48.154;7.748;2023-07-20T03:35:02;8.73;;;3.80;;
4742;SDS011;24293;48.154;7.748;2023-07-20T03:37:29;10.17;;;4.10;;
4742;SDS011;24293;48.154;7.748;2023-07-20T03:39:56;9.80;;;3.53;;
4742;SDS011;24293;48.154;7.748;2023-07-20T03:42:22;6.90;;;3.40;;
4742;SDS011;24293;48.154;7.748;2023-07-20T03:44:49;7.67;;;3.57;;
4742;SDS011;24293;48.154;7.748;2023-07-20T03:47:15;6.47;;;3.27;;
4742;SDS011;24293;48.154;7.748;2023-07-20T03:49:43;6.70;;;3.63;;
4742;SDS011;24293;48.154;7.748;2023-07-20T03:52:10;12.30;;;4.03;;
4742;SDS011;24293;48.154;7.748;2023-07-20T03:54:36;12.77;;;4.37;;
4742;SDS011;24293;48.154;7.748;2023-07-20T03:57:03;10.77;;;3.80;;
4742;SDS011;24293;48.154;7.748;2023-07-20T03:59:30;6.87;;;3.70;;
4742;SDS011;24293;48.154;7.748;2023-07-20T04:01:55;7.40;;;3.70;;
4742;SDS011;24293;48.154;7.748;2023-07-20T04:04:22;14.77;;;3.63;;
4742;SDS011;24293;48.154;7.748;2023-07-20T04:06:50;7.53;;;3.40;;
4742;SDS011;24293;48.154;7.748;2023-07-20T04:09:16;10.83;;;3.53;;
4742;SDS011;24293;48.154;7.748;2023-07-20T04:11:43;10.13;;;3.23;;
4742;SDS011;24293;48.154;7.748;2023-07-20T04:14:10;9.93;;;4.07;;
4742;SDS011;24293;48.154;7.748;2023-07-20T04:16:36;8.60;;;3.47;;
4742;SDS011;24293;48.154;7.748;2023-07-20T04:19:03;8.00;;;3.30;;
4742;SDS011;24293;48.154;7.748;2023-07-20T04:21:29;10.93;;;3.80;;
4742;SDS011;24293;48.154;7.748;2023-07-20T04:23:57;12.50;;;3.70;;
4742;SDS011;24293;48.154;7.748;2023-07-20T04:26:24;11.53;;;3.93;;
4742;SDS011;24293;48.154;7.748;2023-07-20T04:28:51;13.23;;;3.97;;
4742;SDS011;24293;48.154;7.748;2023-07-20T04:31:18;15.17;;;4.23;;
4742;SDS011;24293;48.154;7.748;2023-07-20T04:33:44;8.00;;;3.80;;
4742;SDS011;24293;48.154;7.748;2023-07-20T04:36:10;7.70;;;3.43;;
4742;SDS011;24293;48.154;7.748;2023-07-20T04:38:38;10.63;;;4.40;;
4742;SDS011;24293;48.154;7.748;2023-07-20T04:41:06;9.87;;;3.90;;
4742;SDS011;24293;48.154;7.748;2023-07-20T04:43:33;7.17;;;3.80;;
4742;SDS011;24293;48.154;7.748;2023-07-20T04:45:59;10.43;;;4.30;;
4742;SDS011;24293;48.154;7.748;2023-07-20T04:48:26;8.23;;;3.43;;
4742;SDS011;24293;48.154;7.748;2023-07-20T04:50:52;9.97;;;3.70;;
4742;SDS011;24293;48.154;7.748;2023-07-20T04:53:20;10.33;;;3.53;;
4742;SDS011;24293;48.154;7.748;2023-07-20T04:55:48;9.00;;;3.70;;
4742;SDS011;24293;48.154;7.748;2023-07-20T04:58:18;9.37;;;4.47;;
4742;SDS011;24293;48.154;7.748;2023-07-20T05:00:45;9.20;;;4.23;;
4742;SDS011;24293;48.154;7.748;2023-07-20T05:03:11;11.33;;;3.83;;
4742;SDS011;24293;48.154;7.748;2023-07-20T05:05:38;11.80;;;3.80;;
4742;SDS011;24293;48.154;7.748;2023-07-20T05:08:04;8.10;;;4.10;;
4742;SDS011;24293;48.154;7.748;2023-07-20T05:10:31;15.20;;;6.00;;
4742;SDS011;24293;48.154;7.748;2023-07-20T05:12:58;10.40;;;4.93;;
4742;SDS011;24293;48.154;7.748;2023-07-20T05:15:25;11.77;;;5.07;;
4742;SDS011;24293;48.154;7.748;2023-07-20T05:17:52;12.60;;;4.73;;
4742;SDS011;24293;48.154;7.748;2023-07-20T05:20:19;12.73;;;4.53;;
4742;SDS011;24293;48.154;7.748;2023-07-20T05:22:45;10.23;;;4.00;;
4742;SDS011;24293;48.154;7.748;2023-07-20T05:25:12;14.50;;;5.00;;
4742;SDS011;24293;48.154;7.748;2023-07-20T05:27:39;11.57;;;4.03;;
4742;SDS011;24293;48.154;7.748;2023-07-20T05:30:06;11.93;;;4.67;;
4742;SDS011;24293;48.154;7.748;2023-07-20T05:32:34;10.77;;;3.60;;
4742;SDS011;24293;48.154;7.748;2023-07-20T05:35:00;10.87;;;3.40;;
4742;SDS011;24293;48.154;7.748;2023-07-20T05:37:27;12.30;;;4.67;;
4742;SDS011;24293;48.154;7.748;2023-07-20T05:39:53;7.27;;;4.03;;
4742;SDS011;24293;48.154;7.748;2023-07-20T05:42:20;8.80;;;3.60;;
4742;SDS011;24293;48.154;7.748;2023-07-20T05:44:47;14.40;;;3.43;;
4742;SDS011;24293;48.154;7.748;2023-07-20T05:47:14;10.60;;;4.20;;
4742;SDS011;24293;48.154;7.748;2023-07-20T05:49:43;7.20;;;4.00;;
4742;SDS011;24293;48.154;7.748;2023-07-20T05:52:10;6.40;;;3.50;;
4742;SDS011;24293;48.154;7.748;2023-07-20T05:54:36;9.00;;;4.40;;
4742;SDS011;24293;48.154;7.748;2023-07-20T05:57:03;6.60;;;3.47;;
4742;SDS011;24293;48.154;7.748;2023-07-20T05:59:30;8.67;;;3.63;;
4742;SDS011;24293;48.154;7.748;2023-07-20T06:01:56;9.40;;;4.43;;
4742;SDS011;24293;48.154;7.748;2023-07-20T06:04:23;7.50;;;4.07;;
4742;SDS011;24293;48.154;7.748;2023-07-20T06:06:52;10.23;;;3.20;;
4742;SDS011;24293;48.154;7.748;2023-07-20T06:09:18;8.30;;;3.80;;
4742;SDS011;24293;48.154;7.748;2023-07-20T06:11:45;9.87;;;4.17;;
4742;SDS011;24293;48.154;7.748;2023-07-20T06:14:11;10.00;;;4.43;;
4742;SDS011;24293;48.154;7.748;2023-07-20T06:16:38;13.00;;;3.63;;
4742;SDS011;24293;48.154;7.748;2023-07-20T06:19:04;8.07;;;3.67;;
4742;SDS011;24293;48.154;7.748;2023-07-20T06:21:31;11.00;;;4.47;;
4742;SDS011;24293;48.154;7.748;2023-07-20T06:23:59;12.73;;;4.00;;
4742;SDS011;24293;48.154;7.748;2023-07-20T06:26:25;9.10;;;3.60;;
4742;SDS011;24293;48.154;7.748;2023-07-20T06:28:53;10.90;;;4.00;;
4742;SDS011;24293;48.154;7.748;2023-07-20T06:31:20;8.37;;;3.30;;
4742;SDS011;24293;48.154;7.748;2023-07-20T06:33:46;9.73;;;3.90;;
4742;SDS011;24293;48.154;7.748;2023-07-20T06:36:13;9.80;;;4.33;;
4742;SDS011;24293;48.154;7.748;2023-07-20T06:38:39;6.97;;;3.53;;
4742;SDS011;24293;48.154;7.748;2023-07-20T06:41:07;7.77;;;3.63;;
4742;SDS011;24293;48.154;7.748;2023-07-20T06:43:34;6.77;;;3.53;;
4742;SDS011;24293;48.154;7.748;2023-07-20T06:46:00;7.00;;;3.80;;
4742;SDS011;24293;48.154;7.748;2023-07-20T06:48:27;11.30;;;3.53;;
4742;SDS011;24293;48.154;7.748;2023-07-20T06:50:53;6.83;;;3.63;;
4742;SDS011;24293;48.154;7.748;2023-07-20T06:53:20;16.43;;;4.50;;
4742;SDS011;24293;48.154;7.748;2023-07-20T06:55:46;7.83;;;3.70;;
4742;SDS011;24293;48.154;7.748;2023-07-20T06:58:15;7.77;;;3.30;;
4742;SDS011;24293;48.154;7.748;2023-07-20T07:00:41;7.47;;;3.43;;
4742;SDS011;24293;48.154;7.748;2023-07-20T07:03:08;8.20;;;3.40;;
4742;SDS011;24293;48.154;7.748;2023-07-20T07:05:35;7.33;;;3.47;;
4742;SDS011;24293;48.154;7.748;2023-07-20T07:08:02;9.13;;;3.50;;
4742;SDS011;24293;48.154;7.748;2023-07-20T07:10:28;7.73;;;3.20;;
4742;SDS011;24293;48.154;7.748;2023-07-20T07:12:55;13.83;;;3.77;;
4742;SDS011;24293;48.154;7.748;2023-07-20T07:15:23;7.60;;;3.37;;
4742;SDS011;24293;48.154;7.748;2023-07-20T07:17:49;7.27;;;3.60;;
4742;SDS011;24293;48.154;7.748;2023-07-20T07:20:16;6.03;;;3.03;;
4742;SDS011;24293;48.154;7.748;2023-07-20T07:22:42;8.13;;;3.27;;
4742;SDS011;24293;48.154;7.748;2023-07-20T07:25:10;12.43;;;4.00;;
4742;SDS011;24293;48.154;7.748;2023-07-20T07:27:37;9.97;;;3.73;;
4742;SDS011;24293;48.154;7.748;2023-07-20T07:30:04;10.80;;;4.17;;
4742;SDS011;24293;48.154;7.748;2023-07-20T07:32:32;8.60;;;3.50;;
4742;SDS011;24293;48.154;7.748;2023-07-20T07:34:59;10.17;;;3.60;;
4742;SDS011;24293;48.154;7.748;2023-07-20T07:37:25;8.37;;;4.10;;
4742;SDS011;24293;48.154;7.748;2023-07-20T07:39:52;10.90;;;5.40;;
4742;SDS011;24293;48.154;7.748;2023-07-20T07:42:18;6.33;;;3.57;;
4742;SDS011;24293;48.154;7.748;2023-07-20T07:44:45;8.57;;;3.40;;
4742;SDS011;24293;48.154;7.748;2023-07-20T07:47:11;8.93;;;3.10;;
4742;SDS011;24293;48.154;7.748;2023-07-20T07:49:39;10.50;;;3.90;;
4742;SDS011;24293;48.154;7.748;2023-07-20T07:52:06;9.37;;;4.20;;
4742;SDS011;24293;48.154;7.748;2023-07-20T07:54:32;10.27;;;3.63;;
4742;SDS011;24293;48.154;7.748;2023-07-20T07:56:59;20.33;;;4.23;;
4742;SDS011;24293;48.154;7.748;2023-07-20T07:59:25;8.47;;;3.83;;
4742;SDS011;24293;48.154;7.748;2023-07-20T08:01:52;8.53;;;3.93;;
4742;SDS011;24293;48.154;7.748;2023-07-20T08:04:18;6.40;;;3.77;;
4742;SDS011;24293;48.154;7.748;2023-07-20T08:06:46;10.90;;;4.27;;
4742;SDS011;24293;48.154;7.748;2023-07-20T08:09:13;7.70;;;3.50;;
4742;SDS011;24293;48.154;7.748;2023-07-20T08:11:39;5.97;;;3.03;;
4742;SDS011;24293;48.154;7.748;2023-07-20T08:14:06;7.90;;;3.33;;
4742;SDS011;24293;48.154;7.748;2023-07-20T08:16:32;12.10;;;3.53;;
4742;SDS011;24293;48.154;7.748;2023-07-20T08:18:59;9.87;;;3.87;;
4742;SDS011;24293;48.154;7.748;2023-07-20T08:21:25;9.83;;;3.80;;
4742;SDS011;24293;48.154;7.748;2023-07-20T08:23:53;8.73;;;3.70;;
4742;SDS011;24293;48.154;7.748;2023-07-20T08:26:20;8.07;;;2.73;;
4742;SDS011;24293;48.154;7.748;2023-07-20T08:28:47;8.40;;;3.43;;
4742;SDS011;24293;48.154;7.748;2023-07-20T08:31:14;6.23;;;3.00;;
4742;SDS011;24293;48.154;7.748;2023-07-20T08:33:40;6.10;;;3.40;;
4742;SDS011;24293;48.154;7.748;2023-07-20T08:36:07;7.23;;;3.50;;
4742;SDS011;24293;48.154;7.748;2023-07-20T08:38:34;8.60;;;3.70;;
4742;SDS011;24293;48.154;7.748;2023-07-20T08:41:02;6.17;;;3.43;;
4742;SDS011;24293;48.154;7.748;2023-07-20T08:43:28;7.63;;;3.30;;
4742;SDS011;24293;48.154;7.748;2023-07-20T08:45:56;5.97;;;3.30;;
4742;SDS011;24293;48.154;7.748;2023-07-20T08:48:24;16.80;;;3.67;;
4742;SDS011;24293;48.154;7.748;2023-07-20T08:50:50;7.77;;;3.13;;
4742;SDS011;24293;48.154;7.748;2023-07-20T08:53:17;8.10;;;3.67;;
4742;SDS011;24293;48.154;7.748;2023-07-20T08:55:44;10.60;;;3.87;;
4742;SDS011;24293;48.154;7.748;2023-07-20T08:58:14;7.87;;;3.13;;
4742;SDS011;24293;48.154;7.748;2023-07-20T09:00:41;7.50;;;3.10;;
4742;SDS011;24293;48.154;7.748;2023-07-20T09:03:08;6.53;;;2.80;;
4742;SDS011;24293;48.154;7.748;2023-07-20T09:05:35;5.80;;;2.70;;
4742;SDS011;24293;48.154;7.748;2023-07-20T09:08:01;6.90;;;2.40;;
4742;SDS011;24293;48.154;7.748;2023-07-20T09:10:29;4.70;;;2.37;;
4742;SDS011;24293;48.154;7.748;2023-07-20T09:12:55;5.30;;;2.70;;
4742;SDS011;24293;48.154;7.748;2023-07-20T09:15:23;7.03;;;2.53;;
4742;SDS011;24293;48.154;7.748;2023-07-20T09:17:50;13.60;;;3.20;;
4742;SDS011;24293;48.154;7.748;2023-07-20T09:20:18;7.10;;;2.63;;
4742;SDS011;24293;48.154;7.748;2023-07-20T09:22:45;6.97;;;2.90;;
4742;SDS011;24293;48.154;7.748;2023-07-20T09:25:12;5.47;;;2.77;;
4742;SDS011;24293;48.154;7.748;2023-07-20T09:27:40;5.20;;;2.70;;
4742;SDS011;24293;48.154;7.748;2023-07-20T09:30:07;7.13;;;2.90;;
4742;SDS011;24293;48.154;7.748;2023-07-20T09:32:40;5.90;;;2.20;;
4742;SDS011;24293;48.154;7.748;2023-07-20T09:35:12;7.10;;;2.73;;
4742;SDS011;24293;48.154;7.748;2023-07-20T09:37:38;9.80;;;2.83;;
4742;SDS011;24293;48.154;7.748;2023-07-20T09:40:06;4.97;;;2.43;;
4742;SDS011;24293;48.154;7.748;2023-07-20T09:42:33;8.00;;;2.60;;
4742;SDS011;24293;48.154;7.748;2023-07-20T09:45:01;5.37;;;2.87;;
4742;SDS011;24293;48.154;7.748;2023-07-20T09:47:27;6.30;;;2.93;;
4742;SDS011;24293;48.154;7.748;2023-07-20T09:50:07;7.90;;;3.17;;
4742;SDS011;24293;48.154;7.748;2023-07-20T09:52:37;7.90;;;3.03;;
4742;SDS011;24293;48.154;7.748;2023-07-20T09:55:04;11.53;;;3.60;;
4742;SDS011;24293;48.154;7.748;2023-07-20T09:57:31;8.67;;;3.10;;
4742;SDS011;24293;48.154;7.748;2023-07-20T09:59:58;7.13;;;2.90;;
4742;SDS011;24293;48.154;7.748;2023-07-20T10:02:25;10.83;;;3.10;;
4742;SDS011;24293;48.154;7.748;2023-07-20T10:04:54;7.80;;;2.80;;
4742;SDS011;24293;48.154;7.748;2023-07-20T10:07:24;6.97;;;3.20;;
4742;SDS011;24293;48.154;7.748;2023-07-20T10:09:53;6.20;;;2.50;;
4742;SDS011;24293;48.154;7.748;2023-07-20T10:12:22;10.03;;;2.90;;
4742;SDS011;24293;48.154;7.748;2023-07-20T10:14:52;12.90;;;3.10;;
4742;SDS011;24293;48.154;7.748;2023-07-20T10:17:20;6.53;;;2.73;;
4742;SDS011;24293;48.154;7.748;2023-07-20T10:19:47;5.83;;;2.70;;
4742;SDS011;24293;48.154;7.748;2023-07-20T10:22:18;11.83;;;3.70;;
4742;SDS011;24293;48.154;7.748;2023-07-20T10:24:46;10.57;;;3.07;;
4742;SDS011;24293;48.154;7.748;2023-07-20T10:27:16;9.63;;;3.00;;
4742;SDS011;24293;48.154;7.748;2023-07-20T10:29:42;9.93;;;2.77;;
4742;SDS011;24293;48.154;7.748;2023-07-20T10:32:09;7.20;;;2.53;;
4742;SDS011;24293;48.154;7.748;2023-07-20T10:34:36;5.77;;;2.70;;
4742;SDS011;24293;48.154;7.748;2023-07-20T10:37:03;6.47;;;2.57;;
4742;SDS011;24293;48.154;7.748;2023-07-20T10:39:30;9.37;;;2.93;;
4742;SDS011;24293;48.154;7.748;2023-07-20T10:42:02;12.87;;;4.60;;
4742;SDS011;24293;48.154;7.748;2023-07-20T10:44:29;8.57;;;3.10;;
4742;SDS011;24293;48.154;7.748;2023-07-20T10:46:59;6.03;;;2.90;;
4742;SDS011;24293;48.154;7.748;2023-07-20T10:49:25;8.00;;;3.10;;
4742;SDS011;24293;48.154;7.748;2023-07-20T10:51:56;9.63;;;2.90;;
4742;SDS011;24293;48.154;7.748;2023-07-20T10:54:46;7.70;;;3.00;;
4742;SDS011;24293;48.154;7.748;2023-07-20T10:57:30;9.10;;;2.60;;
4742;SDS011;24293;48.154;7.748;2023-07-20T11:00:09;6.13;;;2.67;;
4742;SDS011;24293;48.154;7.748;2023-07-20T11:02:46;8.53;;;3.03;;
4742;SDS011;24293;48.154;7.748;2023-07-20T11:05:35;7.27;;;3.17;;
4742;SDS011;24293;48.154;7.748;2023-07-20T11:08:05;7.77;;;2.90;;
4742;SDS011;24293;48.154;7.748;2023-07-20T11:10:32;5.43;;;2.70;;
4742;SDS011;24293;48.154;7.748;2023-07-20T11:13:18;7.37;;;2.60;;
4742;SDS011;24293;48.154;7.748;2023-07-20T11:15:45;10.10;;;2.73;;
4742;SDS011;24293;48.154;7.748;2023-07-20T11:18:12;7.40;;;2.70;;
4742;SDS011;24293;48.154;7.748;2023-07-20T11:20:39;7.27;;;2.37;;
4742;SDS011;24293;48.154;7.748;2023-07-20T11:23:06;9.40;;;2.70;;
4742;SDS011;24293;48.154;7.748;2023-07-20T11:25:36;8.70;;;2.47;;
4742;SDS011;24293;48.154;7.748;2023-07-20T11:28:06;5.27;;;2.27;;
4742;SDS011;24293;48.154;7.748;2023-07-20T11:30:34;4.47;;;1.97;;
4742;SDS011;24293;48.154;7.748;2023-07-20T11:33:00;5.37;;;2.60;;
4742;SDS011;24293;48.154;7.748;2023-07-20T11:35:27;10.40;;;2.17;;
4742;SDS011;24293;48.154;7.748;2023-07-20T11:37:54;10.87;;;2.40;;
4742;SDS011;24293;48.154;7.748;2023-07-20T11:40:21;7.37;;;2.40;;
4742;SDS011;24293;48.154;7.748;2023-07-20T11:42:48;5.90;;;2.07;;
4742;SDS011;24293;48.154;7.748;2023-07-20T11:45:15;5.80;;;2.07;;
4742;SDS011;24293;48.154;7.748;2023-07-20T11:47:44;7.63;;;2.10;;
4742;SDS011;24293;48.154;7.748;2023-07-20T11:50:10;5.97;;;2.27;;
4742;SDS011;24293;48.154;7.748;2023-07-20T11:52:39;5.33;;;2.20;;
4742;SDS011;24293;48.154;7.748;2023-07-20T11:55:06;11.97;;;2.40;;
4742;SDS011;24293;48.154;7.748;2023-07-20T11:57:33;7.37;;;2.20;;
4742;SDS011;24293;48.154;7.748;2023-07-20T12:00:00;5.43;;;2.57;;
4742;SDS011;24293;48.154;7.748;2023-07-20T12:02:30;6.90;;;2.00;;
4742;SDS011;24293;48.154;7.748;2023-07-20T12:04:58;6.10;;;2.10;;
4742;SDS011;24293;48.154;7.748;2023-07-20T12:07:25;5.03;;;2.37;;
4742;SDS011;24293;48.154;7.748;2023-07-20T12:10:06;7.30;;;2.20;;
4742;SDS011;24293;48.154;7.748;2023-07-20T12:12:32;7.33;;;2.03;;
4742;SDS011;24293;48.154;7.748;2023-07-20T12:15:12;6.73;;;2.30;;
4742;SDS011;24293;48.154;7.748;2023-07-20T12:17:41;7.70;;;2.53;;
4742;SDS011;24293;48.154;7.748;2023-07-20T12:20:09;11.13;;;2.40;;
4742;SDS011;24293;48.154;7.748;2023-07-20T12:22:38;6.70;;;2.17;;
4742;SDS011;24293;48.154;7.748;2023-07-20T12:25:05;5.97;;;2.10;;
4742;SDS011;24293;48.154;7.748;2023-07-20T12:27:31;5.60;;;2.57;;
4742;SDS011;24293;48.154;7.748;2023-07-20T12:29:58;5.30;;;2.33;;
4742;SDS011;24293;48.154;7.748;2023-07-20T12:32:24;11.33;;;2.40;;
4742;SDS011;24293;48.154;7.748;2023-07-20T12:34:51;8.90;;;2.23;;
4742;SDS011;24293;48.154;7.748;2023-07-20T12:37:19;5.67;;;2.60;;
4742;SDS011;24293;48.154;7.748;2023-07-20T12:39:45;5.37;;;2.70;;
4742;SDS011;24293;48.154;7.748;2023-07-20T12:42:13;8.20;;;2.67;;
4742;SDS011;24293;48.154;7.748;2023-07-20T12:44:40;8.23;;;2.60;;
4742;SDS011;24293;48.154;7.748;2023-07-20T12:47:06;5.73;;;2.43;;
4742;SDS011;24293;48.154;7.748;2023-07-20T12:49:33;6.40;;;2.13;;
4742;SDS011;24293;48.154;7.748;2023-07-20T12:52:00;4.87;;;2.03;;
4742;SDS011;24293;48.154;7.748;2023-07-20T12:54:28;9.73;;;2.70;;
4742;SDS011;24293;48.154;7.748;2023-07-20T12:56:54;7.50;;;2.13;;
4742;SDS011;24293;48.154;7.748;2023-07-20T12:59:21;8.50;;;2.27;;
4742;SDS011;24293;48.154;7.748;2023-07-20T13:01:47;4.60;;;1.77;;
4742;SDS011;24293;48.154;7.748;2023-07-20T13:04:14;3.77;;;1.70;;
4742;SDS011;24293;48.154;7.748;2023-07-20T13:06:40;6.33;;;2.20;;
4742;SDS011;24293;48.154;7.748;2023-07-20T13:09:07;5.40;;;2.37;;
4742;SDS011;24293;48.154;7.748;2023-07-20T13:11:35;8.83;;;2.10;;
4742;SDS011;24293;48.154;7.748;2023-07-20T13:14:02;10.93;;;2.80;;
4742;SDS011;24293;48.154;7.748;2023-07-20T13:16:28;7.00;;;2.53;;
4742;SDS011;24293;48.154;7.748;2023-07-20T13:18:55;9.10;;;2.70;;
4742;SDS011;24293;48.154;7.748;2023-07-20T13:21:21;5.33;;;2.67;;
4742;SDS011;24293;48.154;7.748;2023-07-20T13:23:49;5.10;;;2.60;;
4742;SDS011;24293;48.154;7.748;2023-07-20T13:26:16;5.33;;;2.20;;
4742;SDS011;24293;48.154;7.748;2023-07-20T13:28:44;7.70;;;2.47;;
4742;SDS011;24293;48.154;7.748;2023-07-20T13:31:10;5.60;;;2.50;;
4742;SDS011;24293;48.154;7.748;2023-07-20T13:33:37;6.90;;;2.43;;
4742;SDS011;24293;48.154;7.748;2023-07-20T13:36:04;6.80;;;1.97;;
4742;SDS011;24293;48.154;7.748;2023-07-20T13:38:31;6.27;;;2.23;;
4742;SDS011;24293;48.154;7.748;2023-07-20T13:40:58;7.90;;;2.77;;
4742;SDS011;24293;48.154;7.748;2023-07-20T13:43:24;4.77;;;2.10;;
4742;SDS011;24293;48.154;7.748;2023-07-20T13:45:52;4.93;;;2.00;;
4742;SDS011;24293;48.154;7.748;2023-07-20T13:48:19;12.73;;;1.97;;
4742;SDS011;24293;48.154;7.748;2023-07-20T13:50:48;5.97;;;2.23;;
4742;SDS011;24293;48.154;7.748;2023-07-20T13:53:15;6.53;;;1.87;;
4742;SDS011;24293;48.154;7.748;2023-07-20T13:55:41;12.03;;;2.90;;
4742;SDS011;24293;48.154;7.748;2023-07-20T13:58:08;5.10;;;2.40;;
4742;SDS011;24293;48.154;7.748;2023-07-20T14:00:36;4.73;;;2.17;;
4742;SDS011;24293;48.154;7.748;2023-07-20T14:03:07;7.13;;;2.90;;
4742;SDS011;24293;48.154;7.748;2023-07-20T14:05:34;6.27;;;2.33;;
4742;SDS011;24293;48.154;7.748;2023-07-20T14:08:01;8.53;;;2.80;;
4742;SDS011;24293;48.154;7.748;2023-07-20T14:10:27;6.40;;;2.60;;
4742;SDS011;24293;48.154;7.748;2023-07-20T14:12:54;7.20;;;2.30;;
4742;SDS011;24293;48.154;7.748;2023-07-20T14:15:20;5.37;;;2.70;;
4742;SDS011;24293;48.154;7.748;2023-07-20T14:17:48;6.90;;;2.20;;
4742;SDS011;24293;48.154;7.748;2023-07-20T14:20:16;4.70;;;2.40;;
4742;SDS011;24293;48.154;7.748;2023-07-20T14:22:43;9.13;;;2.30;;
4742;SDS011;24293;48.154;7.748;2023-07-20T14:25:10;4.93;;;2.27;;
4742;SDS011;24293;48.154;7.748;2023-07-20T14:27:36;6.50;;;2.07;;
4742;SDS011;24293;48.154;7.748;2023-07-20T14:30:04;5.20;;;2.37;;
4742;SDS011;24293;48.154;7.748;2023-07-20T14:32:30;4.37;;;2.20;;
4742;SDS011;24293;48.154;7.748;2023-07-20T14:34:58;5.37;;;2.50;;
4742;SDS011;24293;48.154;7.748;2023-07-20T14:37:26;8.57;;;2.37;;
4742;SDS011;24293;48.154;7.748;2023-07-20T14:39:53;4.53;;;2.07;;
4742;SDS011;24293;48.154;7.748;2023-07-20T14:42:19;4.40;;;2.10;;
4742;SDS011;24293;48.154;7.748;2023-07-20T14:44:46;6.93;;;2.20;;
4742;SDS011;24293;48.154;7.748;2023-07-20T14:47:13;7.60;;;2.60;;
4742;SDS011;24293;48.154;7.748;2023-07-20T14:49:39;5.40;;;1.70;;
4742;SDS011;24293;48.154;7.748;2023-07-20T14:52:06;7.23;;;2.43;;
4742;SDS011;24293;48.154;7.748;2023-07-20T14:54:34;5.50;;;2.10;;
4742;SDS011;24293;48.154;7.748;2023-07-20T14:57:01;5.57;;;2.03;;
4742;SDS011;24293;48.154;7.748;2023-07-20T14:59:29;5.97;;;2.10;;
4742;SDS011;24293;48.154;7.748;2023-07-20T15:01:55;6.50;;;2.50;;